Time;durP1;ratioP1;P1;durP2;ratioP2;P2;SDS_P1;SDS_P2;PMS_P1;PMS_P2;Temp;Humidity;BMP_temperature;BMP_pressure;BME280_temperature;BME280_humidity;BME280_pressure;Samples;Min_cycle;Max_cycle;Signal;HPM_P1;HPM_P2
2021/03/07 00:00:17;;;;;;;;;;;;;;;5.48;47.53;102114.38;5000027;28;7057;-78
2021/03/07 00:02:43;;;;;;;;;;;;;;;5.43;48.15;102109.72;5002980;28;7614;-77
2021/03/07 00:05:09;;;;;;;;;;;;;;;5.41;47.66;102108.72;5003762;28;7392;-77
2021/03/07 00:07:35;;;;;;;;;;;;;;;5.37;47.32;102117.03;4999965;28;8255;-78
2021/03/07 00:10:01;;;;;;;;;;;;;;;5.32;47.45;102113.25;5004174;28;8062;-78
2021/03/07 00:12:26;;;;;;;;;;;;;;;5.28;47.71;102112.16;4984924;28;6780;-78
2021/03/07 00:14:52;;;;;;;;;;;;;;;5.23;47.67;102116.13;5019119;28;7262;-78
2021/03/07 00:17:17;;;;;;;;;;;;;;;5.19;48.11;102106.38;5004909;28;7273;-77
2021/03/07 00:19:43;;;;;;;;;;;;;;;5.14;47.89;102106.09;4997727;28;7246;-78
2021/03/07 00:22:08;;;;;;;;;;;;;;;5.09;48.63;102110.06;5002761;28;6934;-77
2021/03/07 00:24:34;;;;;;;;;;;;;;;5.06;47.78;102109.84;4987811;28;7135;-78
2021/03/07 00:26:59;;;;;;;;;;;;;;;5.02;48.06;102110.44;4988135;28;6938;-77
2021/03/07 00:29:26;;;;;;;;;;;;;;;4.93;48.22;102107.22;5002689;28;7234;-78
2021/03/07 00:31:52;;;;;;;;;;;;;;;4.91;48.71;102106.25;5002333;28;6804;-77
2021/03/07 00:34:17;;;;;;;;;;;;;;;4.88;48.46;102106.03;4990660;28;7155;-77
2021/03/07 00:36:43;;;;;;;;;;;;;;;4.83;48.77;102110.00;5000087;28;8411;-77
2021/03/07 00:39:08;;;;;;;;;;;;;;;4.81;48.06;102114.16;5001703;28;6800;-77
2021/03/07 00:41:34;;;;;;;;;;;;;;;4.74;48.61;102111.91;4998598;28;7187;-77
2021/03/07 00:44:00;;;;;;;;;;;;;;;4.71;48.05;102110.03;4997497;28;8423;-77
2021/03/07 00:46:25;;;;;;;;;;;;;;;4.68;48.65;102104.69;4984153;28;8463;-77
2021/03/07 00:48:51;;;;;;;;;;;;;;;4.65;48.46;102106.16;4995965;28;8798;-77
2021/03/07 00:51:16;;;;;;;;;;;;;;;4.62;49.07;102104.28;5014808;28;11009;-77
2021/03/07 00:53:42;;;;;;;;;;;;;;;4.57;48.87;102103.03;5010503;28;8758;-77
2021/03/07 00:56:08;;;;;;;;;;;;;;;4.51;48.76;102111.25;5002698;28;7095;-77
2021/03/07 00:58:33;;;;;;;;;;;;;;;4.49;48.86;102102.53;5001269;28;7962;-77
2021/03/07 01:00:59;;;;;;;;;;;;;;;4.43;48.66;102103.78;4987888;28;6987;-77
2021/03/07 01:03:24;;;;;;;;;;;;;;;4.43;48.19;102106.38;5013512;28;6822;-77
2021/03/07 01:05:50;;;;;;;;;;;;;;;4.39;48.87;102102.66;4999889;28;7814;-77
2021/03/07 01:08:15;;;;;;;;;;;;;;;4.36;48.34;102099.88;5002912;28;6926;-77
2021/03/07 01:10:42;;;;;;;;;;;;;;;4.30;48.54;102099.47;5002423;28;8579;-77
2021/03/07 01:13:10;;;;;;;;;;;;;;;4.26;48.71;102100.94;4987097;28;8665;-77
2021/03/07 01:15:36;;;;;;;;;;;;;;;4.24;48.92;102099.03;5005237;28;7236;-77
2021/03/07 01:18:01;;;;;;;;;;;;;;;4.22;48.60;102100.63;5008446;28;7269;-77
2021/03/07 01:20:27;;;;;;;;;;;;;;;4.19;48.74;102106.41;5007642;28;7115;-77
2021/03/07 01:22:56;;;;;;;;;;;;;;;4.11;49.43;102110.13;5026189;28;7534;-77
2021/03/07 01:25:23;;;;;;;;;;;;;;;4.09;48.60;102103.09;5024324;28;11019;-77
2021/03/07 01:27:49;;;;;;;;;;;;;;;4.04;49.63;102104.47;5019435;28;6967;-77
2021/03/07 01:30:15;;;;;;;;;;;;;;;4.03;49.87;102098.44;5025499;28;7312;-77
2021/03/07 01:32:40;;;;;;;;;;;;;;;4.02;49.75;102098.31;5025356;28;8334;-77
2021/03/07 01:35:06;;;;;;;;;;;;;;;3.99;49.13;102096.41;5010571;28;7762;-77
2021/03/07 01:37:32;;;;;;;;;;;;;;;3.94;49.23;102098.66;5027857;28;6787;-77
2021/03/07 01:39:57;;;;;;;;;;;;;;;3.80;49.10;102099.31;5004816;28;7187;-77
2021/03/07 01:42:23;;;;;;;;;;;;;;;3.83;49.96;102091.88;5002409;28;8083;-77
2021/03/07 01:44:48;;;;;;;;;;;;;;;3.78;49.62;102089.72;5000310;28;11035;-77
2021/03/07 01:47:17;;;;;;;;;;;;;;;3.77;50.06;102091.41;5010688;28;7011;-77
2021/03/07 01:49:43;;;;;;;;;;;;;;;3.75;48.80;102082.69;4999638;28;7238;-77
2021/03/07 01:52:08;;;;;;;;;;;;;;;3.72;50.09;102079.91;5000809;28;7742;-77
2021/03/07 01:54:34;;;;;;;;;;;;;;;3.59;50.15;102070.41;4972729;28;6981;-77
2021/03/07 01:57:00;;;;;;;;;;;;;;;3.65;49.42;102072.56;5006885;28;6772;-77
2021/03/07 01:59:25;;;;;;;;;;;;;;;3.64;49.61;102075.91;4990338;28;7206;-77
2021/03/07 02:01:51;;;;;;;;;;;;;;;3.55;50.14;102064.97;5005910;28;8474;-77
2021/03/07 02:04:16;;;;;;;;;;;;;;;3.56;49.99;102064.19;4994682;28;7205;-77
2021/03/07 02:06:42;;;;;;;;;;;;;;;3.52;50.37;102069.88;4990103;28;7047;-77
2021/03/07 02:09:07;;;;;;;;;;;;;;;3.45;49.72;102053.16;4992329;28;7436;-77
2021/03/07 02:11:34;;;;;;;;;;;;;;;3.46;50.17;102052.38;4987465;28;7234;-77
2021/03/07 02:14:00;;;;;;;;;;;;;;;3.43;49.81;102053.81;4988499;28;7477;-77
2021/03/07 02:16:25;;;;;;;;;;;;;;;3.41;50.56;102050.25;4988714;28;7238;-77
2021/03/07 02:18:51;;;;;;;;;;;;;;;3.33;50.80;102047.09;4987801;28;7079;-77
2021/03/07 02:21:23;;;;;;;;;;;;;;;3.34;50.65;102046.31;4988667;28;7267;-77
2021/03/07 02:24:03;;;;;;;;;;;;;;;3.30;49.83;102045.22;4987851;28;7154;-77
2021/03/07 02:26:29;;;;;;;;;;;;;;;3.22;50.90;102045.44;4999359;28;11577;-77
2021/03/07 02:28:55;;;;;;;;;;;;;;;3.24;50.72;102037.06;5005364;28;8391;-77
2021/03/07 02:31:22;;;;;;;;;;;;;;;3.22;50.88;102036.06;4987269;28;7767;-77
2021/03/07 02:33:47;;;;;;;;;;;;;;;3.19;49.76;102040.94;4971600;28;8446;-77
2021/03/07 02:36:17;;;;;;;;;;;;;;;3.13;50.08;102042.19;4991075;28;6968;-77
2021/03/07 02:38:43;;;;;;;;;;;;;;;3.12;50.25;102036.16;5006422;28;7427;-77
2021/03/07 02:41:09;;;;;;;;;;;;;;;3.11;50.79;102036.94;4992739;28;7280;-77
2021/03/07 02:43:37;;;;;;;;;;;;;;;3.08;50.74;102036.72;4991514;28;7281;-77
2021/03/07 02:46:03;;;;;;;;;;;;;;;3.07;50.31;102034.03;4991551;28;6804;-77
2021/03/07 02:48:29;;;;;;;;;;;;;;;3.04;50.30;102032.16;5007435;28;7431;-77
2021/03/07 02:50:56;;;;;;;;;;;;;;;2.97;51.25;102029.91;5008553;28;7440;-77
2021/03/07 02:53:22;;;;;;;;;;;;;;;2.98;50.36;102026.53;4998565;28;11183;-77
2021/03/07 02:55:52;;;;;;;;;;;;;;;2.95;50.98;102029.78;5000300;28;6884;-77
2021/03/07 02:58:18;;;;;;;;;;;;;;;2.93;50.60;102031.34;5003062;28;8616;-77
2021/03/07 03:00:50;;;;;;;;;;;;;;;2.90;50.64;102032.78;4999705;28;7150;-77
2021/03/07 03:03:17;;;;;;;;;;;;;;;2.85;51.26;102032.47;5001637;28;7603;-77
2021/03/07 03:05:43;;;;;;;;;;;;;;;2.84;51.43;102034.91;5002820;28;7199;-77
2021/03/07 03:08:08;;;;;;;;;;;;;;;2.78;51.43;102030.19;5003067;28;6844;-77
2021/03/07 03:10:34;;;;;;;;;;;;;;;2.78;50.85;102030.19;5001847;28;7312;-77
2021/03/07 03:13:00;;;;;;;;;;;;;;;2.80;50.70;102022.63;5003690;28;7126;-77
2021/03/07 03:15:26;;;;;;;;;;;;;;;2.79;50.66;102031.09;4999309;28;7190;-77
2021/03/07 03:17:51;;;;;;;;;;;;;;;2.74;50.46;102031.66;4955317;28;6983;-77
2021/03/07 03:20:17;;;;;;;;;;;;;;;2.70;51.51;102024.50;4986909;28;7196;-77
2021/03/07 03:22:43;;;;;;;;;;;;;;;2.66;51.43;102025.06;4988072;28;6856;-77
2021/03/07 03:25:09;;;;;;;;;;;;;;;2.64;50.78;102021.50;4988080;28;7133;-77
2021/03/07 03:27:35;;;;;;;;;;;;;;;2.64;51.35;102023.16;4990511;28;7572;-77
2021/03/07 03:30:21;;;;;;;;;;;;;;;2.62;51.48;102025.63;4987619;28;7601;-77
2021/03/07 03:32:47;;;;;;;;;;;;;;;2.55;50.95;102027.59;5014602;28;7201;-77
2021/03/07 03:35:14;;;;;;;;;;;;;;;2.52;51.56;102022.22;5013606;28;7374;-77
2021/03/07 03:37:40;;;;;;;;;;;;;;;2.47;50.91;102014.19;5015408;28;7139;-77
2021/03/07 03:40:08;;;;;;;;;;;;;;;2.46;51.65;102016.66;5012207;28;6828;-77
2021/03/07 03:42:36;;;;;;;;;;;;;;;2.41;51.15;102016.31;5030817;28;7275;-77
2021/03/07 03:45:02;;;;;;;;;;;;;;;2.43;51.11;102019.88;5013978;28;7669;-77
2021/03/07 03:47:27;;;;;;;;;;;;;;;2.42;50.88;102018.09;5011989;28;7227;-77
2021/03/07 03:49:54;;;;;;;;;;;;;;;2.42;51.63;102011.28;5009470;28;7233;-77
2021/03/07 03:52:21;;;;;;;;;;;;;;;2.38;51.07;102011.81;5027103;28;7428;-77
2021/03/07 03:55:16;;;;;;;;;;;;;;;2.32;51.80;102008.78;5014841;28;7245;-77
2021/03/07 03:57:42;;;;;;;;;;;;;;;2.32;50.90;102010.47;5006612;28;11579;-77
2021/03/07 04:00:09;;;;;;;;;;;;;;;2.26;51.59;102007.44;5007943;28;6799;-77
2021/03/07 04:02:35;;;;;;;;;;;;;;;2.20;51.46;102007.84;5002399;28;8244;-77
2021/03/07 04:05:01;;;;;;;;;;;;;;;2.23;51.61;102008.09;4988557;28;6947;-77
2021/03/07 04:07:26;;;;;;;;;;;;;;;2.24;51.55;102011.56;5006843;28;7119;-77
2021/03/07 04:09:52;;;;;;;;;;;;;;;2.13;51.92;102001.34;5004836;28;7284;-77
2021/03/07 04:12:19;;;;;;;;;;;;;;;2.17;51.60;102002.47;5003778;28;7203;-77
2021/03/07 04:14:44;;;;;;;;;;;;;;;2.17;51.77;101999.91;5000606;28;8984;-77
2021/03/07 04:17:10;;;;;;;;;;;;;;;2.12;51.50;101997.00;5006045;28;7004;-77
2021/03/07 04:19:35;;;;;;;;;;;;;;;2.10;51.28;102002.78;5003756;28;7927;-77
2021/03/07 04:22:01;;;;;;;;;;;;;;;2.06;51.69;101994.00;5002961;28;7535;-77
2021/03/07 04:24:27;;;;;;;;;;;;;;;2.02;51.16;101999.66;5005670;28;7244;-77
2021/03/07 04:26:52;;;;;;;;;;;;;;;2.01;51.84;101992.75;5000332;28;7047;-77
2021/03/07 04:29:18;;;;;;;;;;;;;;;2.01;51.17;101995.31;4984082;28;7277;-77
2021/03/07 04:31:43;;;;;;;;;;;;;;;1.99;51.65;101995.94;4988615;28;7302;-77
2021/03/07 04:34:09;;;;;;;;;;;;;;;1.97;51.35;101993.25;4998698;28;7424;-77
2021/03/07 04:36:36;;;;;;;;;;;;;;;1.96;51.66;101986.34;5002419;28;7217;-77
2021/03/07 04:39:02;;;;;;;;;;;;;;;1.89;51.96;101993.47;5001770;28;7347;-77
2021/03/07 04:41:27;;;;;;;;;;;;;;;1.87;52.26;101989.88;4999590;28;6820;-77
2021/03/07 04:43:53;;;;;;;;;;;;;;;1.87;51.85;101984.75;5003348;28;7190;-77
2021/03/07 04:46:23;;;;;;;;;;;;;;;1.83;52.23;101978.50;5016754;28;7019;-77
2021/03/07 04:48:50;;;;;;;;;;;;;;;1.82;52.01;101976.72;4988711;28;8478;-77
2021/03/07 04:51:16;;;;;;;;;;;;;;;1.77;52.22;101972.91;5018821;28;7393;-77
2021/03/07 04:53:42;;;;;;;;;;;;;;;1.80;51.61;101970.56;5003644;28;7348;-77
2021/03/07 04:56:07;;;;;;;;;;;;;;;1.77;51.73;101967.78;5017295;28;8528;-77
2021/03/07 04:58:35;;;;;;;;;;;;;;;1.77;51.58;101976.34;5003229;28;8492;-77
2021/03/07 05:01:01;;;;;;;;;;;;;;;1.73;51.98;101974.31;4988035;28;6965;-77
2021/03/07 05:03:27;;;;;;;;;;;;;;;1.69;51.45;101979.09;5004757;28;7162;-77
2021/03/07 05:05:52;;;;;;;;;;;;;;;1.69;52.03;101976.53;5019245;28;7534;-77
2021/03/07 05:08:18;;;;;;;;;;;;;;;1.66;52.08;101968.63;5018594;28;7083;-77
2021/03/07 05:10:44;;;;;;;;;;;;;;;1.65;52.08;101977.09;5002784;28;6784;-77
2021/03/07 05:13:09;;;;;;;;;;;;;;;1.56;52.61;101968.66;5020047;28;6791;-77
2021/03/07 05:15:35;;;;;;;;;;;;;;;1.56;52.59;101968.66;5004810;28;6787;-77
2021/03/07 05:18:00;;;;;;;;;;;;;;;1.53;51.81;101965.09;4989709;28;7326;-77
2021/03/07 05:20:26;;;;;;;;;;;;;;;1.52;51.84;101955.63;5001544;28;7358;-77
2021/03/07 05:22:51;;;;;;;;;;;;;;;1.47;51.94;101956.03;4985801;28;8833;-77
2021/03/07 05:25:17;;;;;;;;;;;;;;;1.48;52.86;101960.38;5004014;28;6981;-77
2021/03/07 05:27:43;;;;;;;;;;;;;;;1.45;52.33;101949.91;5001590;28;7428;-77
2021/03/07 05:30:09;;;;;;;;;;;;;;;1.43;52.76;101949.78;5005326;28;6958;-77
2021/03/07 05:32:34;;;;;;;;;;;;;;;1.44;52.53;101949.03;5001115;28;8588;-77
2021/03/07 05:35:00;;;;;;;;;;;;;;;1.42;52.32;101952.25;5015719;28;8561;-77
2021/03/07 05:37:25;;;;;;;;;;;;;;;1.40;51.81;101944.44;5008492;28;11126;-78
2021/03/07 05:39:51;;;;;;;;;;;;;;;1.37;51.57;101940.72;5001682;28;6796;-77
2021/03/07 05:42:16;;;;;;;;;;;;;;;1.38;51.89;101951.06;5016876;28;8484;-77
2021/03/07 05:44:42;;;;;;;;;;;;;;;1.36;52.21;101944.94;4988378;28;7210;-77
2021/03/07 05:47:07;;;;;;;;;;;;;;;1.31;53.03;101942.81;5000187;28;7138;-77
2021/03/07 05:49:33;;;;;;;;;;;;;;;1.36;52.59;101944.06;4986115;28;9828;-77
2021/03/07 05:51:59;;;;;;;;;;;;;;;1.30;52.53;101941.91;5002351;28;7561;-77
2021/03/07 05:54:25;;;;;;;;;;;;;;;1.31;52.27;101945.38;4989301;28;6980;-77
2021/03/07 05:56:50;;;;;;;;;;;;;;;1.27;52.31;101945.91;5002655;28;7427;-77
2021/03/07 05:59:17;;;;;;;;;;;;;;;1.26;52.58;101950.13;5007125;28;7383;-77
2021/03/07 06:01:42;;;;;;;;;;;;;;;1.25;52.91;101942.34;4991613;28;8134;-77
2021/03/07 06:04:08;;;;;;;;;;;;;;;1.25;52.05;101948.34;5002331;28;7877;-77
2021/03/07 06:06:33;;;;;;;;;;;;;;;1.26;52.42;101941.56;5016462;28;7272;-77
2021/03/07 06:09:15;;;;;;;;;;;;;;;1.23;52.35;101934.53;5003514;28;7438;-77
2021/03/07 06:11:41;;;;;;;;;;;;;;;1.22;52.45;101940.44;4999089;28;11824;-77
2021/03/07 06:14:18;;;;;;;;;;;;;;;1.23;52.35;101938.75;5002506;28;6904;-77
2021/03/07 06:16:57;;;;;;;;;;;;;;;1.20;52.41;101934.25;5016689;28;7292;-77
2021/03/07 06:19:23;;;;;;;;;;;;;;;1.23;52.54;101931.97;5017945;28;6852;-77
2021/03/07 06:21:48;;;;;;;;;;;;;;;1.12;52.17;101926.00;5019680;28;6788;-77
2021/03/07 06:24:32;;;;;;;;;;;;;;;1.22;52.42;101927.63;5002481;28;7146;-77
2021/03/07 06:27:08;;;;;;;;;;;;;;;1.24;52.25;101926.09;5009467;28;11005;-77
2021/03/07 06:29:36;;;;;;;;;;;;;;;1.24;51.71;101926.09;5007972;28;11500;-77
2021/03/07 06:32:14;;;;;;;;;;;;;;;1.14;51.96;101924.44;5009644;28;8595;-77
2021/03/07 06:34:44;;;;;;;;;;;;;;;1.19;52.18;101930.81;5006365;28;10931;-77
2021/03/07 06:37:09;;;;;;;;;;;;;;;1.25;51.55;101933.00;5004193;28;6984;-77
2021/03/07 06:39:35;;;;;;;;;;;;;;;1.32;51.81;101926.69;5011900;28;6921;-77
2021/03/07 06:42:05;;;;;;;;;;;;;;;1.31;51.30;101927.44;5011154;28;6801;-77
2021/03/07 06:44:30;;;;;;;;;;;;;;;1.31;51.61;101930.91;5008810;28;11690;-77
2021/03/07 06:47:09;;;;;;;;;;;;;;;1.33;52.06;101931.91;5007105;28;6891;-79
2021/03/07 06:49:35;;;;;;;;;;;;;;;1.36;51.06;101926.13;5007150;28;12869;-78
2021/03/07 06:52:16;;;;;;;;;;;;;;;1.31;51.81;101927.44;5007268;28;7136;-78
2021/03/07 06:54:43;;;;;;;;;;;;;;;1.31;52.21;101930.91;4982015;28;11518;-78
2021/03/07 06:57:09;;;;;;;;;;;;;;;1.30;51.94;101930.78;4981893;28;7265;-78
2021/03/07 06:59:35;;;;;;;;;;;;;;;1.40;51.07;101925.59;4977717;28;8612;-78
2021/03/07 07:02:00;;;;;;;;;;;;;;;1.39;51.15;101932.38;5001256;28;7107;-79
2021/03/07 07:04:39;;;;;;;;;;;;;;;1.45;50.95;101935.44;4983461;28;8762;-78
2021/03/07 07:07:05;;;;;;;;;;;;;;;1.43;51.26;101926.75;4998267;28;13752;-79
2021/03/07 07:09:31;;;;;;;;;;;;;;;1.51;50.83;101930.81;5019550;28;7385;-79
2021/03/07 07:11:56;;;;;;;;;;;;;;;1.58;50.59;101931.28;5002040;28;7083;-78
2021/03/07 07:14:29;;;;;;;;;;;;;;;1.61;50.87;101926.41;5007425;28;7051;-79
2021/03/07 07:16:55;;;;;;;;;;;;;;;1.76;51.01;101925.00;5016132;28;6998;-77
2021/03/07 07:19:20;;;;;;;;;;;;;;;1.83;50.56;101924.72;5003710;28;8010;-78
2021/03/07 07:21:47;;;;;;;;;;;;;;;1.93;49.94;101927.19;5001058;28;7575;-73
2021/03/07 07:24:13;;;;;;;;;;;;;;;1.89;50.75;101934.53;4995590;28;7514;-72
2021/03/07 07:26:39;;;;;;;;;;;;;;;1.92;50.43;101932.22;5001020;28;6987;-74
2021/03/07 07:29:05;;;;;;;;;;;;;;;2.09;50.41;101931.84;4985558;28;6863;-75
2021/03/07 07:31:34;;;;;;;;;;;;;;;2.10;49.56;101925.94;5001478;28;7222;-74
2021/03/07 07:34:12;;;;;;;;;;;;;;;2.27;49.42;101932.34;5016206;28;14270;-74
2021/03/07 07:36:51;;;;;;;;;;;;;;;2.32;49.48;101931.00;5025526;28;11262;-75
2021/03/07 07:39:27;;;;;;;;;;;;;;;2.38;49.00;101927.22;5030983;28;7378;-75
2021/03/07 07:41:52;;;;;;;;;;;;;;;2.45;48.97;101933.72;5026140;28;7924;-75
2021/03/07 07:44:30;;;;;;;;;;;;;;;2.49;48.83;101928.03;5006795;28;7467;-75
2021/03/07 07:46:59;;;;;;;;;;;;;;;2.55;48.89;101923.34;5008142;28;7250;-75
2021/03/07 07:49:49;;;;;;;;;;;;;;;2.60;49.12;101919.47;5007796;28;6856;-76
2021/03/07 07:52:21;;;;;;;;;;;;;;;2.66;48.93;101913.88;5001289;28;11297;-74
2021/03/07 07:54:50;;;;;;;;;;;;;;;2.70;48.64;101919.34;5001572;28;6799;-77
2021/03/07 07:57:31;;;;;;;;;;;;;;;2.73;48.55;101917.00;5003069;28;7802;-75
2021/03/07 07:59:56;;;;;;;;;;;;;;;2.81;48.24;101922.72;4999678;28;6824;-72
2021/03/07 08:02:46;;;;;;;;;;;;;;;2.83;48.94;101915.13;5015822;28;6962;-76
2021/03/07 08:05:21;;;;;;;;;;;;;;;2.92;48.63;101923.47;4999762;28;11075;-77
2021/03/07 08:08:11;;;;;;;;;;;;;;;2.94;48.77;101917.66;5000547;28;7396;-77
2021/03/07 08:10:44;;;;;;;;;;;;;;;3.01;48.59;101921.59;4989751;28;11333;-76
2021/03/07 08:13:11;;;;;;;;;;;;;;;3.03;48.21;101912.31;5000187;28;8471;-76
2021/03/07 08:15:41;;;;;;;;;;;;;;;3.10;48.50;101917.09;4995510;28;7064;-76
2021/03/07 08:18:06;;;;;;;;;;;;;;;3.15;48.65;101910.63;4998881;28;7084;-74
2021/03/07 08:20:41;;;;;;;;;;;;;;;3.19;48.58;101907.47;4999133;28;7104;-75
2021/03/07 08:23:19;;;;;;;;;;;;;;;3.25;48.00;101909.59;5017336;28;13014;-75
2021/03/07 08:25:51;;;;;;;;;;;;;;;3.31;47.37;101910.03;5002480;28;6863;-75
2021/03/07 08:28:25;;;;;;;;;;;;;;;3.35;47.90;101894.94;4997944;28;6788;-74
2021/03/07 08:31:29;;;;;;;;;;;;;;;3.36;48.41;101896.72;5014651;28;7140;-74
2021/03/07 08:34:15;;;;;;;;;;;;;;;3.45;47.49;101893.94;4999860;28;11326;-76
2021/03/07 08:36:50;;;;;;;;;;;;;;;3.53;48.14;101892.78;5016901;28;11346;-75
2021/03/07 08:39:16;;;;;;;;;;;;;;;3.57;47.64;101886.16;5020142;28;7398;-75
2021/03/07 08:41:42;;;;;;;;;;;;;;;3.63;46.93;101884.03;5008285;28;7602;-75
2021/03/07 08:44:11;;;;;;;;;;;;;;;3.70;47.66;101885.34;5004274;28;7146;-74
2021/03/07 08:46:39;;;;;;;;;;;;;;;3.74;46.83;101872.81;5003457;28;7575;-77
2021/03/07 08:49:15;;;;;;;;;;;;;;;3.78;47.04;101869.66;5007644;28;11331;-76
2021/03/07 08:51:42;;;;;;;;;;;;;;;3.84;47.59;101869.22;5005446;28;11356;-76
2021/03/07 08:54:15;;;;;;;;;;;;;;;3.89;47.36;101866.16;5024109;28;7174;-75
2021/03/07 08:56:41;;;;;;;;;;;;;;;3.96;47.41;101867.44;5023660;28;9387;-74
2021/03/07 08:59:07;;;;;;;;;;;;;;;3.99;47.46;101870.22;5006096;28;7214;-75
2021/03/07 09:01:33;;;;;;;;;;;;;;;4.05;47.34;101856.91;5011778;28;6815;-75
2021/03/07 09:04:00;;;;;;;;;;;;;;;4.12;46.62;101856.53;5024308;28;7099;-75
2021/03/07 09:06:29;;;;;;;;;;;;;;;4.17;46.95;101855.13;5009605;28;8610;-75
2021/03/07 09:09:08;;;;;;;;;;;;;;;4.23;46.10;101842.72;5008673;28;7031;-75
2021/03/07 09:11:34;;;;;;;;;;;;;;;4.30;46.33;101854.28;5001090;28;11031;-76
2021/03/07 09:14:00;;;;;;;;;;;;;;;4.33;46.38;101845.09;4998877;28;6876;-75
2021/03/07 09:16:56;;;;;;;;;;;;;;;4.39;46.62;101840.31;4981452;28;7086;-74
2021/03/07 09:19:29;;;;;;;;;;;;;;;4.46;46.42;101845.09;4981728;28;11277;-74
2021/03/07 09:22:10;;;;;;;;;;;;;;;4.48;46.57;101840.94;5015783;28;7328;-74
2021/03/07 09:24:35;;;;;;;;;;;;;;;4.55;45.82;101835.41;4983178;28;11227;-73
2021/03/07 09:27:11;;;;;;;;;;;;;;;4.64;46.48;101836.81;5016207;28;7189;-75
2021/03/07 09:29:36;;;;;;;;;;;;;;;4.62;46.08;101828.09;4971086;28;11315;-73
2021/03/07 09:32:02;;;;;;;;;;;;;;;4.73;47.33;101827.09;4994529;28;6823;-74
2021/03/07 09:34:32;;;;;;;;;;;;;;;4.78;48.68;101826.56;5021959;28;7003;-70
2021/03/07 09:36:57;;;;;;;;;;;;;;;4.81;49.16;101831.06;5004734;28;6989;-73
2021/03/07 09:39:23;;;;;;;;;;;;;;;4.89;48.18;101820.44;5002968;28;7372;-73
2021/03/07 09:41:48;;;;;;;;;;;;;;;4.97;48.13;101826.06;5005701;28;7199;-71
2021/03/07 09:44:18;;;;;;;;;;;;;;;4.89;47.73;101814.41;4986394;28;7138;-76
2021/03/07 09:46:47;;;;;;;;;;;;;;;5.01;50.64;101819.44;4981468;28;7290;-73
2021/03/07 09:49:14;;;;;;;;;;;;;;;5.21;49.54;101811.25;5002383;28;7187;-75
2021/03/07 09:51:40;;;;;;;;;;;;;;;5.32;52.04;101811.91;5001504;28;6991;-72
2021/03/07 09:54:12;;;;;;;;;;;;;;;5.50;53.35;101813.91;5001230;28;7098;-72
2021/03/07 09:56:37;;;;;;;;;;;;;;;5.60;52.87;101807.59;4994308;28;11262;-71
2021/03/07 09:59:22;;;;;;;;;;;;;;;5.67;53.00;101809.78;4995482;28;6791;-73
2021/03/07 10:01:58;;;;;;;;;;;;;;;5.77;53.24;101806.03;5002619;28;11258;-71
2021/03/07 10:04:40;;;;;;;;;;;;;;;5.85;53.39;101803.94;4996452;28;7254;-74
2021/03/07 10:07:20;;;;;;;;;;;;;;;5.94;52.42;101809.66;4995922;28;12270;-72
2021/03/07 10:10:15;;;;;;;;;;;;;;;6.02;52.43;101808.44;4997188;28;11030;-73
2021/03/07 10:12:48;;;;;;;;;;;;;;;6.13;52.05;101806.47;5011391;28;11239;-73
2021/03/07 10:15:24;;;;;;;;;;;;;;;6.25;51.60;101808.06;4993782;28;7019;-73
2021/03/07 10:17:49;;;;;;;;;;;;;;;6.35;50.81;101800.03;4998667;28;8788;-74
2021/03/07 10:20:15;;;;;;;;;;;;;;;6.48;50.94;101793.88;5015652;28;7130;-71
2021/03/07 10:22:42;;;;;;;;;;;;;;;6.57;50.18;101796.06;4999916;28;7556;-72
2021/03/07 10:25:19;;;;;;;;;;;;;;;6.68;49.74;101801.06;4997794;28;7568;-71
2021/03/07 10:27:55;;;;;;;;;;;;;;;6.80;49.13;101800.81;4997086;28;11061;-70
2021/03/07 10:30:40;;;;;;;;;;;;;;;6.89;49.46;101790.13;4997972;28;7734;-71
2021/03/07 10:33:27;;;;;;;;;;;;;;;7.02;48.97;101787.41;4999635;28;11026;-71
2021/03/07 10:36:06;;;;;;;;;;;;;;;7.15;48.88;101783.78;4999170;28;10991;-70
2021/03/07 10:38:39;;;;;;;;;;;;;;;7.28;48.47;101784.53;5007879;28;8883;-71
2021/03/07 10:41:20;;;;;;;;;;;;;;;7.47;47.64;101777.72;4988423;28;6820;-72
2021/03/07 10:43:50;;;;;;;;;;;;;;;7.59;47.86;101768.91;5000989;28;11397;-71
2021/03/07 10:46:35;;;;;;;;;;;;;;;7.71;46.95;101772.94;4987801;28;7080;-72
2021/03/07 10:49:03;;;;;;;;;;;;;;;7.81;46.82;101770.91;5016478;28;7253;-71
2021/03/07 10:51:29;;;;;;;;;;;;;;;7.88;46.73;101767.81;5000624;28;7735;-72
2021/03/07 10:53:55;;;;;;;;;;;;;;;8.08;46.22;101765.31;5017595;28;7479;-71
2021/03/07 10:56:21;;;;;;;;;;;;;;;8.22;45.45;101770.38;4995355;28;6795;-71
2021/03/07 10:58:47;;;;;;;;;;;;;;;8.33;45.23;101764.81;4991346;28;7244;-71
2021/03/07 11:01:15;;;;;;;;;;;;;;;8.48;44.76;101763.88;5005963;28;7385;-71
2021/03/07 11:03:40;;;;;;;;;;;;;;;8.68;44.21;101756.19;4993738;28;7229;-71
2021/03/07 11:06:06;;;;;;;;;;;;;;;8.80;44.21;101755.03;4990686;28;11588;-71
2021/03/07 11:08:32;;;;;;;;;;;;;;;8.95;43.03;101762.63;4990521;28;6946;-70
2021/03/07 11:10:57;;;;;;;;;;;;;;;9.11;43.31;101748.66;5007052;28;7122;-73
2021/03/07 11:13:23;;;;;;;;;;;;;;;9.20;42.87;101738.69;4992194;28;6791;-72
2021/03/07 11:15:48;;;;;;;;;;;;;;;9.40;42.18;101745.66;4987582;28;6818;-71
2021/03/07 11:18:14;;;;;;;;;;;;;;;9.60;41.49;101738.72;4996889;28;7361;-70
2021/03/07 11:20:39;;;;;;;;;;;;;;;9.67;41.49;101737.31;5011269;28;7293;-71
2021/03/07 11:23:05;;;;;;;;;;;;;;;9.85;41.01;101727.72;5010689;28;7396;-72
2021/03/07 11:25:30;;;;;;;;;;;;;;;9.97;41.16;101728.19;5007358;28;7332;-70
2021/03/07 11:27:56;;;;;;;;;;;;;;;10.28;40.23;101721.69;4995435;28;8113;-73
2021/03/07 11:30:22;;;;;;;;;;;;;;;10.54;39.39;101720.13;4984147;28;7219;-72
2021/03/07 11:32:47;;;;;;;;;;;;;;;10.71;39.22;101719.06;5004179;28;7123;-72
2021/03/07 11:35:13;;;;;;;;;;;;;;;10.85;39.06;101712.69;5002140;28;7369;-71
2021/03/07 11:37:38;;;;;;;;;;;;;;;11.00;39.21;101714.94;5001978;28;7056;-73
2021/03/07 11:40:05;;;;;;;;;;;;;;;11.15;38.77;101705.09;5001974;28;7245;-73
2021/03/07 11:42:30;;;;;;;;;;;;;;;11.27;38.49;101704.66;4999491;28;6963;-73
2021/03/07 11:44:56;;;;;;;;;;;;;;;11.34;38.45;101706.66;5017662;28;7196;-72
2021/03/07 11:47:21;;;;;;;;;;;;;;;11.52;38.27;101698.59;5017800;28;6788;-72
2021/03/07 11:49:47;;;;;;;;;;;;;;;11.66;37.72;101704.28;5001998;28;7198;-71
2021/03/07 11:52:12;;;;;;;;;;;;;;;11.99;36.85;101705.41;4999612;28;6918;-72
2021/03/07 11:54:38;;;;;;;;;;;;;;;12.15;36.63;101704.19;5001697;28;7076;-72
2021/03/07 11:57:05;;;;;;;;;;;;;;;12.34;36.44;101696.13;5000788;28;6787;-71
2021/03/07 11:59:31;;;;;;;;;;;;;;;12.52;35.79;101693.22;4998863;28;7091;-71
2021/03/07 12:01:57;;;;;;;;;;;;;;;12.86;35.15;101684.69;5013061;28;6811;-72
2021/03/07 12:04:22;;;;;;;;;;;;;;;13.17;34.75;101681.19;5014031;28;7250;-71
2021/03/07 12:06:48;;;;;;;;;;;;;;;13.38;34.08;101681.81;4985714;28;7195;-70
2021/03/07 12:09:14;;;;;;;;;;;;;;;13.53;34.04;101675.22;5002176;28;7083;-72
2021/03/07 12:11:39;;;;;;;;;;;;;;;13.66;34.01;101667.75;4999749;28;7067;-74
2021/03/07 12:14:05;;;;;;;;;;;;;;;13.87;33.99;101666.53;5015740;28;6945;-72
2021/03/07 12:16:30;;;;;;;;;;;;;;;14.19;33.34;101654.19;5002141;28;7098;-73
2021/03/07 12:18:56;;;;;;;;;;;;;;;14.29;32.91;101657.06;4988515;28;8492;-73
2021/03/07 12:21:22;;;;;;;;;;;;;;;14.63;33.22;101646.53;4999066;28;7079;-73
2021/03/07 12:23:47;;;;;;;;;;;;;;;14.42;33.01;101644.28;5001972;28;7647;-75
2021/03/07 12:26:13;;;;;;;;;;;;;;;14.82;33.14;101646.03;5000899;28;7422;-73
2021/03/07 12:28:38;;;;;;;;;;;;;;;15.06;32.22;101635.19;4998273;28;11062;-73
2021/03/07 12:31:04;;;;;;;;;;;;;;;15.37;31.45;101624.41;5015382;28;7432;-74
2021/03/07 12:33:30;;;;;;;;;;;;;;;15.49;31.23;101635.09;5000340;28;7514;-72
2021/03/07 12:35:55;;;;;;;;;;;;;;;15.75;32.09;101630.31;4998730;28;6860;-72
2021/03/07 12:38:21;;;;;;;;;;;;;;;15.92;31.80;101625.34;5000618;28;7109;-74
2021/03/07 12:40:46;;;;;;;;;;;;;;;16.32;30.41;101615.44;5009850;28;8508;-73
2021/03/07 12:43:12;;;;;;;;;;;;;;;16.48;30.60;101620.03;4998771;28;7099;-74
2021/03/07 12:45:38;;;;;;;;;;;;;;;16.72;30.08;101620.34;4987778;28;8467;-73
2021/03/07 12:48:04;;;;;;;;;;;;;;;16.90;30.12;101601.31;4988866;28;9398;-73
2021/03/07 12:50:29;;;;;;;;;;;;;;;17.13;29.83;101605.94;4988579;28;7394;-73
2021/03/07 12:52:55;;;;;;;;;;;;;;;17.39;29.61;101591.28;4990055;28;7187;-73
2021/03/07 12:55:20;;;;;;;;;;;;;;;17.66;29.25;101590.66;5002230;28;7210;-73
2021/03/07 12:57:46;;;;;;;;;;;;;;;17.96;29.01;101587.38;4986205;28;7478;-74
2021/03/07 13:00:13;;;;;;;;;;;;;;;18.35;28.16;101583.22;5007132;28;7272;-73